sensor_id;sensor_type;location;lat;lon;timestamp;temperature;humidity
16140;DHT22;8175;49.326;12.690;2023-11-19T11:49:27;8.70;99.90
16140;DHT22;8175;49.326;12.690;2023-11-19T11:51:58;9.00;99.90
16140;DHT22;8175;49.326;12.690;2023-11-19T11:57:11;9.40;99.90
16140;DHT22;8175;49.326;12.690;2023-11-19T12:02:10;9.20;99.90
16140;DHT22;8175;49.326;12.690;2023-11-19T12:04:36;9.10;99.90
16140;DHT22;8175;49.326;12.690;2023-11-19T12:07:06;9.00;99.90
16140;DHT22;8175;49.326;12.690;2023-11-19T12:09:33;8.90;99.90
16140;DHT22;8175;49.326;12.690;2023-11-19T12:12:19;9.00;99.90
16140;DHT22;8175;49.326;12.690;2023-11-19T12:20:06;9.00;99.90
16140;DHT22;8175;49.326;12.690;2023-11-19T12:22:38;8.90;99.90
16140;DHT22;8175;49.326;12.690;2023-11-19T12:25:08;9.00;99.90
16140;DHT22;8175;49.326;12.690;2023-11-19T12:27:44;9.20;99.90
16140;DHT22;8175;49.326;12.690;2023-11-19T12:30:10;9.30;99.90
16140;DHT22;8175;49.326;12.690;2023-11-19T12:32:40;9.30;99.90
16140;DHT22;8175;49.326;12.690;2023-11-19T12:35:07;9.30;99.90
16140;DHT22;8175;49.326;12.690;2023-11-19T12:37:42;9.50;99.90
16140;DHT22;8175;49.326;12.690;2023-11-19T12:42:38;10.10;99.90
16140;DHT22;8175;49.326;12.690;2023-11-19T12:45:05;10.20;99.90
16140;DHT22;8175;49.326;12.690;2023-11-19T12:47:30;10.30;99.90
16140;DHT22;8175;49.326;12.690;2023-11-19T12:49:57;10.50;99.90
16140;DHT22;8175;49.326;12.690;2023-11-19T12:52:23;10.70;99.90
16140;DHT22;8175;49.326;12.690;2023-11-19T12:54:49;10.20;99.90
16140;DHT22;8175;49.326;12.690;2023-11-19T12:57:15;10.10;99.90
16140;DHT22;8175;49.326;12.690;2023-11-19T12:59:41;10.10;99.90
16140;DHT22;8175;49.326;12.690;2023-11-19T13:02:08;10.10;99.90
16140;DHT22;8175;49.326;12.690;2023-11-19T13:04:34;10.10;99.90
16140;DHT22;8175;49.326;12.690;2023-11-19T13:07:00;10.20;99.90
16140;DHT22;8175;49.326;12.690;2023-11-19T13:09:27;10.30;99.90
16140;DHT22;8175;49.326;12.690;2023-11-19T13:11:53;10.30;99.90
16140;DHT22;8175;49.326;12.690;2023-11-19T13:14:20;10.30;99.90
16140;DHT22;8175;49.326;12.690;2023-11-19T13:16:46;10.30;99.90
16140;DHT22;8175;49.326;12.690;2023-11-19T13:19:15;10.20;99.90
16140;DHT22;8175;49.326;12.690;2023-11-19T13:21:45;10.20;99.90
16140;DHT22;8175;49.326;12.690;2023-11-19T13:24:13;10.20;99.90
16140;DHT22;8175;49.326;12.690;2023-11-19T13:26:38;10.40;99.90
16140;DHT22;8175;49.326;12.690;2023-11-19T13:29:04;10.80;99.90
16140;DHT22;8175;49.326;12.690;2023-11-19T13:31:30;10.90;99.90
16140;DHT22;8175;49.326;12.690;2023-11-19T13:33:56;10.80;99.90
16140;DHT22;8175;49.326;12.690;2023-11-19T13:36:23;10.60;99.90
16140;DHT22;8175;49.326;12.690;2023-11-19T13:38:49;10.40;99.90
16140;DHT22;8175;49.326;12.690;2023-11-19T13:41:15;10.20;99.90
16140;DHT22;8175;49.326;12.690;2023-11-19T13:43:41;10.10;99.90
16140;DHT22;8175;49.326;12.690;2023-11-19T13:46:06;10.00;99.90
16140;DHT22;8175;49.326;12.690;2023-11-19T13:48:34;10.00;99.90
16140;DHT22;8175;49.326;12.690;2023-11-19T13:51:00;9.90;99.90
16140;DHT22;8175;49.326;12.690;2023-11-19T13:53:26;9.80;99.90
16140;DHT22;8175;49.326;12.690;2023-11-19T13:55:51;9.80;99.90
16140;DHT22;8175;49.326;12.690;2023-11-19T13:58:17;9.80;99.90
16140;DHT22;8175;49.326;12.690;2023-11-19T14:00:42;9.80;99.90
16140;DHT22;8175;49.326;12.690;2023-11-19T14:03:09;9.80;99.90
16140;DHT22;8175;49.326;12.690;2023-11-19T14:05:38;9.80;99.90
16140;DHT22;8175;49.326;12.690;2023-11-19T14:08:05;9.80;99.90
16140;DHT22;8175;49.326;12.690;2023-11-19T14:10:40;9.80;99.90
16140;DHT22;8175;49.326;12.690;2023-11-19T14:13:08;9.80;99.90
16140;DHT22;8175;49.326;12.690;2023-11-19T14:15:34;9.80;99.90
16140;DHT22;8175;49.326;12.690;2023-11-19T14:18:01;9.80;99.90
16140;DHT22;8175;49.326;12.690;2023-11-19T14:20:27;10.00;99.90
16140;DHT22;8175;49.326;12.690;2023-11-19T14:22:52;10.10;99.90
16140;DHT22;8175;49.326;12.690;2023-11-19T14:25:18;10.10;99.90
16140;DHT22;8175;49.326;12.690;2023-11-19T14:27:45;10.10;99.90
16140;DHT22;8175;49.326;12.690;2023-11-19T14:30:12;10.20;99.90
16140;DHT22;8175;49.326;12.690;2023-11-19T14:32:42;10.30;99.90
16140;DHT22;8175;49.326;12.690;2023-11-19T14:35:10;10.30;99.90
16140;DHT22;8175;49.326;12.690;2023-11-19T14:37:36;10.40;99.90
16140;DHT22;8175;49.326;12.690;2023-11-19T14:40:01;10.30;99.90
16140;DHT22;8175;49.326;12.690;2023-11-19T14:42:30;10.10;99.90
16140;DHT22;8175;49.326;12.690;2023-11-19T14:44:55;10.00;99.90
16140;DHT22;8175;49.326;12.690;2023-11-19T14:47:22;9.80;99.90
16140;DHT22;8175;49.326;12.690;2023-11-19T14:49:47;9.60;99.90
16140;DHT22;8175;49.326;12.690;2023-11-19T14:52:13;9.50;99.90
16140;DHT22;8175;49.326;12.690;2023-11-19T14:54:39;9.50;99.90
16140;DHT22;8175;49.326;12.690;2023-11-19T14:57:05;9.40;99.90
16140;DHT22;8175;49.326;12.690;2023-11-19T14:59:36;9.40;99.90
16140;DHT22;8175;49.326;12.690;2023-11-19T15:02:02;9.40;99.90
16140;DHT22;8175;49.326;12.690;2023-11-19T15:04:28;9.30;99.90
16140;DHT22;8175;49.326;12.690;2023-11-19T15:06:56;9.30;99.90
16140;DHT22;8175;49.326;12.690;2023-11-19T15:09:22;9.40;99.90
16140;DHT22;8175;49.326;12.690;2023-11-19T15:11:48;9.50;99.90
16140;DHT22;8175;49.326;12.690;2023-11-19T15:14:14;9.50;99.90
16140;DHT22;8175;49.326;12.690;2023-11-19T15:16:45;9.50;99.90
16140;DHT22;8175;49.326;12.690;2023-11-19T15:19:11;9.50;99.90
16140;DHT22;8175;49.326;12.690;2023-11-19T15:21:38;9.50;99.90
16140;DHT22;8175;49.326;12.690;2023-11-19T15:24:04;9.50;99.90
